createdAt,value
2023-03-23T15:58:26.226Z,9.60
2023-03-23T16:00:54.517Z,8.75
2023-03-23T16:03:26.081Z,9.20
2023-03-23T16:05:53.949Z,9.25
2023-03-23T16:08:21.492Z,8.65
2023-03-23T16:10:49.065Z,8.00
2023-03-23T16:13:16.668Z,7.03
2023-03-23T16:15:44.381Z,8.38
2023-03-23T16:18:18.128Z,6.72
2023-03-23T16:20:45.727Z,7.60
2023-03-23T16:23:13.202Z,11.27
2023-03-23T16:25:41.143Z,9.05
2023-03-23T16:28:15.676Z,8.07
2023-03-23T16:30:44.090Z,8.60
2023-03-23T16:33:11.665Z,9.68
2023-03-23T16:35:39.524Z,7.63
2023-03-23T16:38:09.009Z,8.00
2023-03-23T16:40:37.832Z,7.35
2023-03-23T16:43:08.897Z,8.18
2023-03-23T16:45:38.468Z,8.45
2023-03-23T16:48:06.802Z,8.82
2023-03-23T16:50:34.903Z,7.03
2023-03-23T16:53:02.399Z,10.13
2023-03-23T16:55:30.961Z,11.70
2023-03-23T16:58:12.784Z,10.07
2023-03-23T17:00:44.738Z,10.32
2023-03-23T17:03:13.018Z,11.20
2023-03-23T17:05:41.574Z,12.52
2023-03-23T17:08:10.193Z,11.05
2023-03-23T17:10:38.629Z,11.63
2023-03-23T17:13:09.449Z,11.30
2023-03-23T17:15:37.889Z,11.13
2023-03-23T17:18:05.806Z,10.27
2023-03-23T17:20:33.703Z,13.13
2023-03-23T17:23:01.664Z,14.95
2023-03-23T17:25:31.308Z,15.95
2023-03-23T17:28:05.478Z,13.18
2023-03-23T17:30:34.526Z,12.13
2023-03-23T17:33:02.210Z,10.23
2023-03-23T17:35:29.759Z,9.10
2023-03-23T17:37:57.340Z,8.85
2023-03-23T17:40:24.883Z,9.52
2023-03-23T17:42:52.376Z,9.48
2023-03-23T17:45:20.609Z,8.70
2023-03-23T17:47:48.149Z,8.05
2023-03-23T17:50:16.482Z,11.93
2023-03-23T17:52:44.241Z,11.73
2023-03-23T17:55:11.910Z,11.98
2023-03-23T17:57:39.583Z,11.02
2023-03-23T18:00:09.553Z,10.80
2023-03-23T18:02:37.849Z,11.45
2023-03-23T18:05:06.954Z,13.27
2023-03-23T18:07:34.742Z,11.43
2023-03-23T18:10:02.261Z,11.27
2023-03-23T18:12:29.975Z,9.82
2023-03-23T18:15:00.621Z,9.23
2023-03-23T18:17:28.201Z,9.07
2023-03-23T18:19:56.181Z,11.07
2023-03-23T18:22:24.099Z,9.38
2023-03-23T18:24:51.702Z,7.50
2023-03-23T18:27:19.500Z,8.45
2023-03-23T18:29:49.016Z,8.88
2023-03-23T18:32:17.702Z,9.52
2023-03-23T18:34:45.203Z,7.15
2023-03-23T18:37:12.694Z,9.95
2023-03-23T18:39:40.133Z,6.25
2023-03-23T18:42:07.681Z,8.73
2023-03-23T18:44:35.206Z,6.72
2023-03-23T18:47:02.709Z,6.60
2023-03-23T18:49:31.786Z,6.22
2023-03-23T18:51:59.337Z,4.88
2023-03-23T18:54:27.108Z,4.72
2023-03-23T18:56:55.518Z,5.97
2023-03-23T18:59:30.980Z,4.25
2023-03-23T19:01:58.604Z,6.20
2023-03-23T19:04:26.639Z,3.97
2023-03-23T19:06:54.215Z,4.30
2023-03-23T19:09:21.768Z,4.63
2023-03-23T19:11:49.279Z,4.07
2023-03-23T19:14:18.529Z,4.78
2023-03-23T19:16:46.327Z,4.75
2023-03-23T19:19:14.267Z,4.03
2023-03-23T19:21:43.847Z,6.20
2023-03-23T19:24:14.505Z,3.65
2023-03-23T19:26:43.642Z,5.70
2023-03-23T19:31:45.733Z,7.63
2023-03-23T19:34:14.364Z,5.20
2023-03-23T19:36:41.897Z,6.15
2023-03-23T19:39:15.708Z,4.45
2023-03-23T19:41:45.690Z,5.60
2023-03-23T19:44:13.434Z,5.38
2023-03-23T19:46:41.325Z,4.35
2023-03-23T19:49:09.323Z,5.85
2023-03-23T19:51:37.346Z,4.30
2023-03-23T19:54:09.793Z,4.97
2023-03-23T19:56:37.643Z,5.78
2023-03-23T19:59:05.299Z,4.18
2023-03-23T20:01:34.088Z,8.80
2023-03-23T20:04:07.031Z,4.80
2023-03-23T20:06:37.609Z,4.03
2023-03-23T20:09:05.591Z,5.20
2023-03-23T20:11:34.265Z,3.67
2023-03-23T20:14:02.587Z,4.22
2023-03-23T20:16:31.314Z,3.38
2023-03-23T20:19:00.183Z,4.07
2023-03-23T20:21:28.506Z,4.63
2023-03-23T20:23:57.652Z,4.72
2023-03-23T20:26:30.414Z,4.63
2023-03-23T20:28:58.009Z,2.70
2023-03-23T20:31:27.443Z,3.38
2023-03-23T20:34:00.716Z,4.18
2023-03-23T20:36:36.869Z,3.33
2023-03-23T20:39:06.117Z,4.30
2023-03-23T20:41:36.541Z,4.28
2023-03-23T20:44:04.941Z,4.50
2023-03-23T20:46:33.112Z,3.60
2023-03-23T20:49:02.768Z,4.38
2023-03-23T20:51:30.462Z,2.53
2023-03-23T20:53:58.036Z,3.63
2023-03-23T20:56:26.227Z,2.75
2023-03-23T20:58:54.255Z,3.42
2023-03-23T21:01:25.155Z,3.67
2023-03-23T21:03:54.665Z,3.70
2023-03-23T21:06:22.299Z,3.65
2023-03-23T21:08:50.323Z,3.28
2023-03-23T21:11:19.824Z,3.10
2023-03-23T21:13:47.595Z,3.72
2023-03-23T21:16:15.187Z,3.88
2023-03-23T21:18:42.809Z,2.67
2023-03-23T21:21:12.102Z,3.85
2023-03-23T21:23:39.918Z,2.63
2023-03-23T21:26:10.342Z,3.83
2023-03-23T21:28:38.496Z,2.60
2023-03-23T21:31:08.006Z,3.33
2023-03-23T21:33:38.569Z,3.40
2023-03-23T21:36:06.896Z,2.35
2023-03-23T21:38:34.890Z,1.90
2023-03-23T21:41:07.572Z,2.10
2023-03-23T21:43:35.207Z,2.35
2023-03-23T21:46:04.581Z,2.88
2023-03-23T21:48:33.635Z,3.63
2023-03-23T21:51:08.816Z,3.08
2023-03-23T21:53:37.542Z,2.80
2023-03-23T21:56:06.761Z,2.60
2023-03-23T21:58:37.926Z,2.78
2023-03-23T22:01:06.127Z,1.90
2023-03-23T22:03:35.595Z,2.63
2023-03-23T22:06:10.136Z,2.97
2023-03-23T22:08:38.915Z,3.53
2023-03-23T22:11:08.292Z,4.13
2023-03-23T22:13:38.424Z,3.67
2023-03-23T22:16:08.502Z,2.92
2023-03-23T22:18:36.660Z,3.67
2023-03-23T22:21:05.285Z,5.75
2023-03-23T22:23:32.991Z,2.25
2023-03-23T22:26:01.147Z,2.58
2023-03-23T22:28:29.221Z,2.30
2023-03-23T22:31:01.239Z,2.28
2023-03-23T22:33:28.789Z,3.53
2023-03-23T22:35:56.796Z,2.58
2023-03-23T22:38:24.388Z,1.90
2023-03-23T22:40:55.952Z,2.03
2023-03-23T22:43:23.686Z,2.20
2023-03-23T22:45:52.457Z,2.55
2023-03-23T22:48:20.885Z,3.20
2023-03-23T22:50:48.764Z,2.53
2023-03-23T22:53:17.300Z,1.73
2023-03-23T22:55:46.151Z,2.45
2023-03-23T22:58:14.705Z,1.80
2023-03-23T23:00:46.086Z,2.60
2023-03-23T23:03:13.918Z,1.92
2023-03-23T23:05:45.969Z,2.72
2023-03-23T23:08:15.935Z,2.50
2023-03-23T23:10:46.570Z,1.60
2023-03-23T23:13:14.509Z,2.10
2023-03-23T23:15:43.346Z,3.53
2023-03-23T23:18:10.990Z,1.73
2023-03-23T23:20:39.268Z,2.28
2023-03-23T23:23:07.040Z,2.20
2023-03-23T23:25:35.278Z,2.80
2023-03-23T23:28:03.907Z,1.27
2023-03-23T23:30:32.136Z,2.45
2023-03-23T23:33:00.196Z,1.58
2023-03-23T23:35:27.902Z,2.50
2023-03-23T23:37:55.679Z,2.42
2023-03-23T23:40:23.311Z,1.92
2023-03-23T23:42:51.762Z,2.20
2023-03-23T23:45:20.081Z,4.97
2023-03-23T23:47:48.129Z,3.15
2023-03-23T23:50:16.423Z,2.20
2023-03-23T23:52:45.302Z,2.42
2023-03-23T23:55:18.591Z,2.08
2023-03-23T23:57:47.033Z,1.55
